Time;durP1;ratioP1;P1;durP2;ratioP2;P2;SDS_P1;SDS_P2;PMS_P1;PMS_P2;Temp;Humidity;BMP_temperature;BMP_pressure;BME280_temperature;BME280_humidity;BME280_pressure;Samples;Min_cycle;Max_cycle;Signal;HPM_P1;HPM_P2
2022/07/12 00:00:45;;;;;;;9.53;2.20;;;14.70;99.90;;;;;;4991225;28;20429;-78
2022/07/12 00:03:10;;;;;;;2.17;1.67;;;14.70;99.90;;;;;;4991065;28;20431;-81
2022/07/12 00:05:36;;;;;;;3.10;2.63;;;14.70;99.90;;;;;;4980061;28;20199;-82
2022/07/12 00:08:01;;;;;;;1.60;1.30;;;14.70;99.90;;;;;;4996610;28;20201;-80
2022/07/12 00:10:27;;;;;;;3.37;2.03;;;14.70;99.90;;;;;;4996504;28;20168;-79
2022/07/12 00:12:54;;;;;;;2.80;1.90;;;14.60;99.90;;;;;;4996326;28;20668;-81
2022/07/12 00:15:20;;;;;;;2.50;1.93;;;14.60;99.90;;;;;;4996671;28;20683;-80
2022/07/12 00:17:45;;;;;;;2.63;1.70;;;14.60;99.90;;;;;;4995958;28;20458;-81
2022/07/12 00:20:11;;;;;;;2.07;1.83;;;14.50;99.90;;;;;;4976888;28;20395;-81
2022/07/12 00:22:36;;;;;;;2.23;2.03;;;14.60;99.90;;;;;;4984049;28;20172;-81
2022/07/12 00:25:02;;;;;;;2.30;1.90;;;14.60;99.90;;;;;;4979219;28;20172;-80
2022/07/12 00:27:28;;;;;;;2.60;2.20;;;14.50;99.90;;;;;;4996669;28;20275;-80
2022/07/12 00:29:54;;;;;;;2.42;2.10;;;14.50;99.90;;;;;;4996006;28;20414;-79
2022/07/12 00:32:20;;;;;;;2.10;1.90;;;14.50;99.90;;;;;;4987865;28;20178;-81
2022/07/12 00:34:45;;;;;;;3.23;2.30;;;14.40;99.90;;;;;;4994095;28;20214;-82
2022/07/12 00:37:11;;;;;;;2.33;2.13;;;14.50;99.90;;;;;;4988625;28;20214;-82
2022/07/12 00:39:36;;;;;;;2.60;2.00;;;14.40;99.90;;;;;;4983507;28;20255;-80
2022/07/12 00:42:02;;;;;;;2.77;1.80;;;14.50;99.90;;;;;;4982172;28;20183;-79
2022/07/12 00:44:30;;;;;;;4.00;2.00;;;14.60;99.90;;;;;;4989745;28;20186;-81
2022/07/12 00:46:56;;;;;;;1.90;1.67;;;14.70;99.90;;;;;;4987660;28;20213;-79
2022/07/12 00:49:23;;;;;;;3.63;2.10;;;14.80;99.90;;;;;;4991871;28;20453;-80
2022/07/12 00:51:50;;;;;;;3.23;2.03;;;14.90;99.90;;;;;;4995101;28;20466;-79
2022/07/12 00:54:16;;;;;;;2.30;2.00;;;14.90;99.90;;;;;;4993752;28;20466;-82
2022/07/12 00:56:43;;;;;;;3.90;2.13;;;15.00;99.90;;;;;;4992764;28;20913;-81
2022/07/12 00:59:09;;;;;;;3.07;2.27;;;15.10;99.90;;;;;;4978235;28;20338;-80
2022/07/12 01:01:36;;;;;;;3.23;1.70;;;15.10;99.90;;;;;;4974012;28;20491;-79
2022/07/12 01:04:03;;;;;;;6.77;1.90;;;15.20;99.90;;;;;;4986927;28;20423;-81
2022/07/12 01:06:30;;;;;;;4.43;2.07;;;15.20;99.90;;;;;;4981728;28;20774;-81
2022/07/12 01:08:58;;;;;;;3.83;1.37;;;15.20;99.90;;;;;;4976033;28;20415;-80
2022/07/12 01:11:24;;;;;;;2.13;1.63;;;15.10;99.90;;;;;;4977199;28;20479;-81
2022/07/12 01:13:52;;;;;;;6.13;1.97;;;15.20;99.90;;;;;;4987673;28;20781;-79
2022/07/12 01:16:19;;;;;;;1.60;1.50;;;15.10;99.90;;;;;;5008754;28;20450;-80
2022/07/12 01:18:45;;;;;;;3.30;2.20;;;15.20;99.90;;;;;;4994599;28;20458;-81
2022/07/12 01:21:17;;;;;;;2.40;1.97;;;15.10;99.90;;;;;;4986931;28;20920;-82
2022/07/12 01:23:45;;;;;;;1.67;1.57;;;15.10;99.90;;;;;;4995270;28;20278;-82
2022/07/12 01:26:12;;;;;;;4.30;2.13;;;15.10;99.90;;;;;;4996657;28;20820;-81
2022/07/12 01:28:37;;;;;;;3.60;2.20;;;15.10;99.90;;;;;;4995619;28;20480;-80
2022/07/12 01:31:04;;;;;;;3.30;1.97;;;14.90;99.90;;;;;;4995911;28;20426;-81
2022/07/12 01:33:30;;;;;;;2.90;2.33;;;14.80;99.90;;;;;;4993450;28;20532;-79
2022/07/12 01:35:56;;;;;;;2.77;2.30;;;14.80;99.90;;;;;;4993275;28;20476;-79
2022/07/12 01:38:22;;;;;;;7.33;2.27;;;14.80;99.90;;;;;;4996419;28;20485;-79
2022/07/12 01:40:47;;;;;;;2.20;2.00;;;14.70;99.90;;;;;;4989645;28;20435;-81
2022/07/12 01:43:13;;;;;;;2.17;1.97;;;14.70;99.90;;;;;;4991578;28;20179;-80
2022/07/12 01:45:39;;;;;;;2.37;1.90;;;15.30;99.90;;;;;;4993356;28;20211;-81
2022/07/12 01:48:05;;;;;;;5.03;2.40;;;14.50;99.90;;;;;;5001121;28;20423;-80
2022/07/12 01:50:30;;;;;;;2.27;2.07;;;14.40;99.90;;;;;;5012008;28;20923;-79
2022/07/12 01:52:56;;;;;;;2.63;2.30;;;14.30;99.90;;;;;;4999698;28;20668;-82
2022/07/12 01:55:23;;;;;;;3.20;2.47;;;16.60;99.90;;;;;;5000653;28;20195;-82
2022/07/12 01:57:49;;;;;;;4.07;2.42;;;14.20;99.90;;;;;;5000055;28;20191;-81
2022/07/12 02:00:15;;;;;;;2.30;1.97;;;14.20;99.90;;;;;;4987331;28;20172;-83
2022/07/12 02:02:40;;;;;;;2.90;1.97;;;14.10;99.90;;;;;;4983918;28;20790;-81
2022/07/12 02:05:06;;;;;;;2.60;2.40;;;14.10;99.90;;;;;;4983223;28;20174;-84
2022/07/12 02:07:32;;;;;;;2.57;2.37;;;14.10;99.90;;;;;;4998775;28;20179;-83
2022/07/12 02:09:58;;;;;;;2.53;2.23;;;14.10;99.90;;;;;;5015034;28;20787;-82
2022/07/12 02:12:24;;;;;;;2.33;2.13;;;14.00;99.90;;;;;;5015857;28;20442;-83
2022/07/12 02:14:51;;;;;;;3.15;2.20;;;14.00;99.90;;;;;;5000186;28;20418;-82
2022/07/12 02:17:16;;;;;;;2.97;2.60;;;13.90;99.90;;;;;;4999776;28;20172;-83
2022/07/12 02:19:42;;;;;;;5.50;2.87;;;13.90;99.90;;;;;;4999871;28;20433;-82
2022/07/12 02:22:08;;;;;;;4.80;2.20;;;13.80;99.90;;;;;;4999841;28;20270;-79
2022/07/12 02:24:34;;;;;;;2.93;2.33;;;13.80;99.90;;;;;;4998585;28;20414;-82
2022/07/12 02:26:59;;;;;;;2.40;2.20;;;13.70;99.90;;;;;;4998244;28;20199;-82
2022/07/12 02:29:25;;;;;;;2.60;2.20;;;13.70;99.90;;;;;;4999568;28;20175;-81
2022/07/12 02:31:50;;;;;;;3.80;2.87;;;13.70;99.90;;;;;;4998606;28;20586;-80
2022/07/12 02:34:16;;;;;;;3.83;2.53;;;13.70;99.90;;;;;;4993750;28;20649;-79
2022/07/12 02:36:41;;;;;;;3.57;1.73;;;13.70;99.90;;;;;;4992672;28;20270;-80
2022/07/12 02:39:07;;;;;;;5.90;2.00;;;13.70;99.90;;;;;;4996195;28;20235;-81
2022/07/12 02:41:33;;;;;;;3.43;2.13;;;13.80;99.90;;;;;;4994401;28;20206;-82
2022/07/12 02:43:59;;;;;;;2.60;2.17;;;13.80;99.90;;;;;;4986570;28;20718;-80
2022/07/12 02:46:25;;;;;;;3.53;2.53;;;13.80;99.90;;;;;;4991914;28;20274;-86
2022/07/12 02:48:52;;;;;;;2.33;2.10;;;13.80;99.90;;;;;;4998209;28;20434;-84
2022/07/12 02:51:18;;;;;;;2.50;2.30;;;13.70;99.90;;;;;;4999837;28;20234;-85
2022/07/12 02:53:43;;;;;;;7.10;2.70;;;13.70;99.90;;;;;;5012208;28;20648;-84
2022/07/12 02:56:09;;;;;;;2.90;2.40;;;13.60;99.90;;;;;;4999382;28;20442;-83
2022/07/12 02:58:35;;;;;;;2.70;2.25;;;13.50;99.90;;;;;;4999858;28;20222;-86
2022/07/12 03:01:01;;;;;;;3.43;2.57;;;13.50;99.90;;;;;;4996943;28;20191;-85
2022/07/12 03:03:26;;;;;;;3.07;2.37;;;13.50;99.90;;;;;;4993261;28;20203;-84
2022/07/12 03:05:52;;;;;;;3.10;2.43;;;13.40;99.90;;;;;;4989546;28;20307;-85
2022/07/12 03:08:17;;;;;;;2.47;2.20;;;13.40;99.90;;;;;;4992272;28;20269;-86
2022/07/12 03:10:43;;;;;;;2.80;2.60;;;13.40;99.90;;;;;;4994112;28;20269;-85
2022/07/12 03:13:09;;;;;;;3.70;2.50;;;13.40;99.90;;;;;;4998956;28;20167;-85
2022/07/12 03:15:35;;;;;;;4.40;2.58;;;13.40;99.90;;;;;;4996482;28;20213;-80
2022/07/12 03:18:01;;;;;;;2.37;2.17;;;13.40;99.90;;;;;;4997904;28;20238;-85
2022/07/12 03:20:28;;;;;;;3.10;2.40;;;13.40;99.90;;;;;;4997458;28;20171;-86
2022/07/12 03:22:54;;;;;;;2.50;2.30;;;13.40;99.90;;;;;;4996284;28;20584;-82
2022/07/12 03:25:21;;;;;;;2.27;2.07;;;13.40;99.90;;;;;;4997175;28;20199;-82
2022/07/12 03:27:46;;;;;;;2.40;2.05;;;13.40;99.90;;;;;;4998155;28;20175;-82
2022/07/12 03:30:13;;;;;;;6.70;2.50;;;13.40;99.90;;;;;;4998591;28;20186;-82
2022/07/12 03:32:39;;;;;;;3.20;2.13;;;13.50;99.90;;;;;;4998573;28;20174;-82
2022/07/12 03:35:05;;;;;;;3.40;2.50;;;13.40;99.90;;;;;;4998632;28;20246;-85
2022/07/12 03:37:44;;;;;;;4.20;2.35;;;13.40;99.90;;;;;;4996613;28;20680;-83
2022/07/12 03:40:10;;;;;;;4.35;1.80;;;13.40;99.90;;;;;;4997902;28;20167;-81
2022/07/12 03:42:36;;;;;;;3.65;1.98;;;13.40;99.90;;;;;;4997434;28;20274;-83
2022/07/12 03:45:02;;;;;;;2.67;2.20;;;13.50;99.90;;;;;;4996092;28;20597;-83
2022/07/12 03:47:28;;;;;;;2.72;2.53;;;13.60;99.90;;;;;;5030670;22;20230;-78
2022/07/12 03:49:55;;;;;;;3.70;2.37;;;13.60;99.90;;;;;;5031933;28;20174;-81
2022/07/12 03:52:20;;;;;;;3.45;2.88;;;13.70;99.90;;;;;;5027711;28;20178;-81
2022/07/12 03:54:46;;;;;;;2.30;2.10;;;13.80;99.90;;;;;;5029933;28;22032;-78
2022/07/12 03:57:14;;;;;;;2.50;2.23;;;13.90;99.90;;;;;;5016373;28;20238;-78
2022/07/12 03:59:44;;;;;;;3.50;2.55;;;13.90;99.90;;;;;;5018843;28;20190;-79
2022/07/12 04:02:11;;;;;;;2.80;2.00;;;13.90;99.90;;;;;;5028631;28;20182;-79
2022/07/12 04:04:36;;;;;;;3.28;2.63;;;14.00;99.90;;;;;;5021682;28;20182;-79
2022/07/12 04:07:02;;;;;;;5.90;2.57;;;14.10;99.90;;;;;;5022177;28;20221;-79
2022/07/12 04:09:28;;;;;;;2.83;2.45;;;14.20;99.90;;;;;;5026557;28;20190;-80
2022/07/12 04:11:53;;;;;;;4.20;2.37;;;14.30;99.90;;;;;;5028613;28;20246;-82
2022/07/12 04:14:19;;;;;;;2.57;1.73;;;14.40;99.90;;;;;;5024046;28;20193;-82
2022/07/12 04:16:44;;;;;;;5.10;2.27;;;14.60;99.90;;;;;;5024631;28;20244;-81
2022/07/12 04:19:10;;;;;;;2.50;2.03;;;14.70;99.90;;;;;;5022394;28;20209;-80
2022/07/12 04:21:37;;;;;;;4.27;2.40;;;14.90;99.90;;;;;;5024981;28;20221;-81
2022/07/12 04:24:03;;;;;;;3.80;2.40;;;15.20;99.90;;;;;;5036912;28;20182;-80
2022/07/12 04:26:29;;;;;;;4.20;2.90;;;15.50;99.90;;;;;;5037807;28;20592;-81
2022/07/12 04:28:55;;;;;;;3.87;3.40;;;15.90;99.90;;;;;;5039117;28;20437;-81
2022/07/12 04:31:20;;;;;;;4.20;2.77;;;16.10;99.90;;;;;;5027471;28;20276;-81
2022/07/12 04:33:46;;;;;;;5.10;3.30;;;16.70;99.90;;;;;;5025982;28;20182;-81
2022/07/12 04:36:11;;;;;;;4.30;2.43;;;18.00;99.90;;;;;;5030868;28;20310;-80
2022/07/12 04:38:37;;;;;;;3.53;1.90;;;18.70;99.90;;;;;;5027381;28;20205;-83
2022/07/12 04:41:02;;;;;;;2.73;1.40;;;20.60;99.90;;;;;;5027119;28;20261;-78
2022/07/12 04:43:28;;;;;;;2.00;1.50;;;22.70;99.90;;;;;;5019718;28;20182;-79
2022/07/12 04:45:54;;;;;;;2.00;1.60;;;24.80;99.90;;;;;;5024127;28;20208;-81
2022/07/12 04:48:19;;;;;;;2.70;2.00;;;26.70;99.90;;;;;;5016046;28;20273;-80
2022/07/12 04:50:45;;;;;;;2.10;1.60;;;27.60;99.90;;;;;;5010131;28;20201;-80
2022/07/12 04:53:10;;;;;;;2.27;1.50;;;28.10;99.90;;;;;;5008658;28;20218;-79
2022/07/12 04:55:36;;;;;;;3.57;1.80;;;29.10;99.90;;;;;;5011435;28;20199;-80
2022/07/12 04:58:04;;;;;;;2.47;1.70;;;30.30;99.90;;;;;;5012424;28;20220;-79
2022/07/12 05:00:29;;;;;;;3.10;1.70;;;31.90;97.30;;;;;;5014064;28;20516;-82
2022/07/12 05:02:55;;;;;;;1.97;1.77;;;32.80;92.00;;;;;;5020135;28;20917;-80
2022/07/12 05:05:23;;;;;;;2.00;1.90;;;34.10;88.70;;;;;;5012994;28;20186;-80
2022/07/12 05:07:49;;;;;;;2.30;1.80;;;35.40;80.60;;;;;;5018848;28;20675;-80
2022/07/12 05:10:14;;;;;;;5.30;2.57;;;36.50;72.80;;;;;;5017164;28;20447;-81
2022/07/12 05:12:40;;;;;;;2.50;2.30;;;37.40;63.10;;;;;;5026510;28;20198;-81
2022/07/12 05:15:07;;;;;;;3.30;2.93;;;37.80;59.30;;;;;;5022937;28;20725;-83
2022/07/12 05:17:33;;;;;;;3.87;3.67;;;38.30;56.50;;;;;;5020488;28;20609;-81
2022/07/12 05:19:58;;;;;;;4.17;3.97;;;38.30;53.50;;;;;;5017395;28;20446;-80
2022/07/12 05:22:24;;;;;;;5.10;4.80;;;38.50;53.10;;;;;;5015007;28;20221;-80
2022/07/12 05:24:49;;;;;;;5.20;4.90;;;38.80;52.10;;;;;;5022196;28;20201;-81
2022/07/12 05:27:15;;;;;;;6.60;6.30;;;39.20;51.30;;;;;;5019240;28;20213;-80
2022/07/12 05:29:41;;;;;;;7.60;7.30;;;39.90;48.90;;;;;;5026621;28;20202;-80
2022/07/12 05:32:07;;;;;;;7.23;6.93;;;39.70;48.40;;;;;;5023682;28;20193;-80
2022/07/12 05:34:32;;;;;;;9.53;9.00;;;40.20;47.90;;;;;;5022295;28;20443;-80
2022/07/12 05:36:58;;;;;;;8.00;7.60;;;39.80;45.00;;;;;;5022563;28;20204;-81
2022/07/12 05:39:24;;;;;;;8.00;7.70;;;39.30;47.50;;;;;;5022343;28;20214;-81
2022/07/12 05:41:49;;;;;;;9.63;9.23;;;40.00;46.00;;;;;;5021437;28;20204;-81
2022/07/12 05:44:18;;;;;;;10.67;10.13;;;40.70;45.00;;;;;;5027849;28;20182;-81
2022/07/12 05:46:47;;;;;;;9.00;8.60;;;41.00;44.30;;;;;;5022957;28;20400;-81
2022/07/12 05:49:13;;;;;;;10.53;10.13;;;41.80;43.30;;;;;;5020135;28;20469;-82
2022/07/12 05:54:23;;;;;;;9.90;9.50;;;41.50;41.10;;;;;;5018802;28;20197;-80
2022/07/12 05:56:50;;;;;;;10.50;10.00;;;41.00;42.00;;;;;;5019445;28;20468;-80
2022/07/12 05:59:19;;;;;;;11.90;11.40;;;42.30;41.00;;;;;;5020785;28;20530;-80
2022/07/12 06:01:45;;;;;;;12.50;12.00;;;42.30;39.60;;;;;;5020839;28;20931;-80
2022/07/12 06:04:10;;;;;;;14.20;13.60;;;42.90;39.90;;;;;;5021149;28;20448;-80
2022/07/12 06:06:36;;;;;;;13.73;13.23;;;43.20;38.10;;;;;;5020943;28;20213;-80
2022/07/12 06:09:03;;;;;;;15.17;14.60;;;43.30;38.20;;;;;;5017948;28;20197;-80
2022/07/12 06:11:28;;;;;;;14.77;14.17;;;43.20;38.10;;;;;;5025001;28;20643;-80
2022/07/12 06:13:54;;;;;;;16.10;15.33;;;44.10;37.20;;;;;;5026266;28;20607;-81
2022/07/12 06:16:19;;;;;;;15.50;14.80;;;43.00;36.90;;;;;;5026120;28;20207;-80
2022/07/12 06:18:45;;;;;;;14.90;14.40;;;42.00;36.70;;;;;;5018353;28;20605;-80
2022/07/12 06:21:10;;;;;;;15.83;15.00;;;41.70;37.60;;;;;;5016596;28;20194;-79
2022/07/12 06:23:36;;;;;;;14.70;14.10;;;40.30;38.30;;;;;;5014345;28;20182;-80
2022/07/12 06:26:02;;;;;;;13.27;12.77;;;40.30;38.90;;;;;;5017123;28;20243;-79
2022/07/12 06:28:27;;;;;;;14.33;13.67;;;40.40;39.70;;;;;;5020464;28;20228;-80
2022/07/12 06:30:53;;;;;;;16.80;16.10;;;40.60;39.40;;;;;;5024360;28;20178;-79
2022/07/12 06:33:19;;;;;;;10.33;9.93;;;40.20;39.60;;;;;;5023720;28;20443;-80
2022/07/12 06:35:44;;;;;;;10.40;9.90;;;40.30;40.30;;;;;;5022176;28;20236;-79
2022/07/12 06:38:10;;;;;;;10.13;9.73;;;39.10;41.20;;;;;;5021364;28;20276;-79
2022/07/12 06:40:35;;;;;;;9.87;9.17;;;39.30;41.10;;;;;;5023418;28;20196;-79
2022/07/12 06:43:01;;;;;;;9.87;9.40;;;39.50;41.70;;;;;;5022366;28;20190;-78
2022/07/12 06:45:26;;;;;;;9.70;9.30;;;40.10;39.00;;;;;;5024072;28;20194;-81
2022/07/12 06:47:53;;;;;;;10.53;10.00;;;40.00;39.40;;;;;;5023795;28;20761;-81
2022/07/12 06:50:18;;;;;;;11.37;10.77;;;41.30;40.10;;;;;;5027230;28;20225;-81
2022/07/12 06:52:44;;;;;;;11.13;10.63;;;41.80;39.10;;;;;;5020931;28;20488;-80
2022/07/12 06:55:09;;;;;;;13.40;12.80;;;42.70;38.50;;;;;;5025155;28;20186;-80
2022/07/12 06:57:36;;;;;;;12.30;11.80;;;40.10;37.90;;;;;;5022647;28;20205;-79
2022/07/12 07:00:06;;;;;;;10.27;9.87;;;39.20;39.50;;;;;;5024004;28;20189;-79
2022/07/12 07:02:31;;;;;;;11.83;10.93;;;38.30;40.10;;;;;;5021816;28;20475;-79
2022/07/12 07:04:57;;;;;;;10.70;9.90;;;38.30;39.70;;;;;;5021921;28;20460;-80
2022/07/12 07:07:23;;;;;;;9.50;9.20;;;38.60;40.90;;;;;;5023921;28;20198;-79
2022/07/12 07:09:48;;;;;;;10.77;10.37;;;40.30;38.80;;;;;;5022532;28;20186;-78
2022/07/12 07:12:14;;;;;;;10.10;9.70;;;41.40;35.50;;;;;;5022427;28;20185;-79
2022/07/12 07:14:39;;;;;;;10.13;9.67;;;42.20;36.50;;;;;;5022631;28;21718;-81
2022/07/12 07:17:05;;;;;;;11.80;11.30;;;42.80;34.90;;;;;;5023135;28;20209;-80
2022/07/12 07:19:30;;;;;;;11.67;11.27;;;44.00;34.20;;;;;;5020334;28;20213;-80
2022/07/12 07:21:56;;;;;;;13.67;13.07;;;43.00;35.00;;;;;;5018660;28;20178;-82
2022/07/12 07:24:22;;;;;;;12.83;12.23;;;43.70;35.00;;;;;;5025441;28;20169;-81
2022/07/12 07:26:48;;;;;;;13.60;12.87;;;43.30;34.70;;;;;;5025288;28;20752;-80
2022/07/12 07:31:58;;;;;;;12.40;11.90;;;41.50;35.20;;;;;;5021729;28;20510;-80
2022/07/12 07:34:24;;;;;;;12.70;12.10;;;41.90;35.30;;;;;;5022787;28;20435;-81
2022/07/12 07:36:50;;;;;;;13.30;12.80;;;42.00;35.40;;;;;;5020140;28;20249;-81
2022/07/12 07:39:16;;;;;;;13.03;12.53;;;41.50;34.20;;;;;;5023473;28;20241;-80
2022/07/12 07:41:41;;;;;;;11.90;11.50;;;40.50;36.40;;;;;;5022268;28;20543;-79
2022/07/12 07:44:07;;;;;;;12.57;11.97;;;41.40;35.60;;;;;;5025202;28;20189;-79
2022/07/12 07:46:33;;;;;;;12.70;12.20;;;41.70;35.00;;;;;;5021994;28;20220;-78
2022/07/12 07:48:58;;;;;;;12.50;11.60;;;40.20;36.20;;;;;;5024784;28;20217;-78
2022/07/12 07:51:24;;;;;;;11.93;11.43;;;40.90;35.40;;;;;;5022008;28;20170;-80
2022/07/12 07:53:49;;;;;;;13.67;13.07;;;40.60;36.40;;;;;;5021017;28;20207;-79
2022/07/12 07:56:15;;;;;;;13.10;12.60;;;41.00;34.70;;;;;;5020806;28;20320;-78
2022/07/12 07:58:40;;;;;;;13.43;12.93;;;40.90;35.00;;;;;;5021164;28;20595;-81
2022/07/12 08:01:06;;;;;;;14.20;13.60;;;42.00;35.30;;;;;;5019767;28;20182;-81
2022/07/12 08:03:32;;;;;;;13.33;12.83;;;;;;;;;;5018359;28;20201;-80
2022/07/12 08:05:58;;;;;;;14.57;14.00;;;42.70;32.70;;;;;;5019385;28;20208;-81
2022/07/12 08:08:24;;;;;;;15.50;14.90;;;42.70;33.20;;;;;;5019438;28;20193;-80
2022/07/12 08:10:50;;;;;;;14.33;13.60;;;41.90;32.50;;;;;;5021808;28;20527;-80
2022/07/12 08:13:16;;;;;;;14.50;13.70;;;41.40;33.40;;;;;;5023081;28;21304;-80
2022/07/12 08:15:42;;;;;;;14.83;13.97;;;41.70;33.20;;;;;;5023489;28;20555;-80
2022/07/12 08:18:08;;;;;;;15.83;15.20;;;41.60;33.60;;;;;;5020185;28;20487;-80
2022/07/12 08:20:34;;;;;;;13.30;12.80;;;39.70;33.60;;;;;;5022966;28;20227;-80
2022/07/12 08:23:00;;;;;;;12.17;11.67;;;38.50;34.00;;;;;;5024246;28;20180;-79
2022/07/12 08:25:25;;;;;;;11.90;11.50;;;38.20;35.50;;;;;;5023856;28;20238;-79
2022/07/12 08:27:51;;;;;;;11.70;11.07;;;38.20;36.00;;;;;;5024048;28;20521;-79
2022/07/12 08:30:16;;;;;;;10.70;10.30;;;38.70;34.80;;;;;;5022340;28;20220;-79
2022/07/12 08:32:45;;;;;;;10.90;10.50;;;39.30;34.90;;;;;;5021670;28;20193;-79
2022/07/12 08:35:11;;;;;;;10.60;10.20;;;38.10;34.80;;;;;;5020636;28;20223;-79
2022/07/12 08:37:37;;;;;;;10.83;10.43;;;38.30;36.10;;;;;;5018041;28;20459;-79
2022/07/12 08:40:05;;;;;;;10.70;10.30;;;39.10;35.20;;;;;;5022154;28;20439;-79
2022/07/12 08:42:31;;;;;;;10.43;10.03;;;39.30;33.70;;;;;;5023540;28;20186;-79
2022/07/12 08:44:57;;;;;;;10.13;9.80;;;40.00;34.40;;;;;;5031455;28;20440;-80
2022/07/12 08:47:23;;;;;;;11.80;11.40;;;40.20;32.60;;;;;;5024798;28;20466;-80
2022/07/12 08:50:16;;;;;;;11.67;11.17;;;38.30;34.00;;;;;;5026027;28;20566;-78
2022/07/12 08:52:44;;;;;;;11.10;10.70;;;37.60;35.20;;;;;;5028081;28;20190;-79
2022/07/12 08:55:31;;;;;;;11.67;11.27;;;38.20;34.50;;;;;;5025438;28;20449;-79
2022/07/12 08:57:58;;;;;;;10.47;10.07;;;36.20;36.40;;;;;;5025412;28;20468;-82
2022/07/12 09:00:26;;;;;;;11.40;10.70;;;35.90;36.50;;;;;;5025841;28;20493;-78
2022/07/12 09:03:03;;;;;;;10.47;10.07;;;37.20;36.40;;;;;;5026242;28;20512;-81
2022/07/12 09:05:31;;;;;;;9.13;8.73;;;33.90;38.40;;;;;;5023919;28;20438;-78
2022/07/12 09:08:04;;;;;;;8.60;8.20;;;33.70;39.00;;;;;;5024729;28;20512;-79
2022/07/12 09:10:31;;;;;;;7.70;7.40;;;32.00;42.20;;;;;;5025442;28;20445;-78
2022/07/12 09:12:56;;;;;;;6.93;6.53;;;32.60;42.50;;;;;;5026062;28;20439;-78
2022/07/12 09:15:23;;;;;;;7.63;7.33;;;35.90;38.30;;;;;;5026776;28;20499;-79
2022/07/12 09:17:59;;;;;;;8.30;8.00;;;35.80;38.80;;;;;;5022732;28;20281;-80
2022/07/12 09:20:30;;;;;;;9.37;9.00;;;37.80;37.20;;;;;;5025579;28;20444;-80
2022/07/12 09:22:58;;;;;;;9.20;8.83;;;38.70;35.70;;;;;;5024747;28;20439;-81
2022/07/12 09:25:25;;;;;;;9.50;8.70;;;;;;;;;;5024674;28;20546;-80
2022/07/12 09:27:52;;;;;;;8.97;8.67;;;37.40;35.50;;;;;;5026094;28;20434;-81
2022/07/12 09:30:19;;;;;;;9.60;9.30;;;38.60;36.20;;;;;;5026155;28;20509;-80
2022/07/12 09:36:06;;;;;;;9.80;9.40;;;37.10;36.70;;;;;;5023799;28;20508;-81
2022/07/12 09:38:32;;;;;;;9.23;8.93;;;37.50;36.70;;;;;;5023300;28;21151;-80
2022/07/12 09:40:59;;;;;;;9.37;8.97;;;36.60;36.00;;;;;;5025244;28;20935;-81
2022/07/12 09:43:26;;;;;;;8.97;8.67;;;35.70;38.30;;;;;;5021248;28;20622;-80
2022/07/12 09:48:28;;;;;;;7.70;7.40;;;34.60;39.10;;;;;;5027529;28;20477;-82
2022/07/12 09:50:56;;;;;;;7.13;6.93;;;33.40;40.60;;;;;;5032884;28;20833;-81
2022/07/12 09:53:35;;;;;;;7.13;6.90;;;32.40;40.90;;;;;;5031878;28;20485;-81
2022/07/12 09:56:05;;;;;;;5.00;4.70;;;30.90;43.00;;;;;;5037536;28;20437;-79
2022/07/12 09:58:39;;;;;;;4.40;4.20;;;29.70;44.90;;;;;;5033901;28;20455;-84
2022/07/12 10:01:06;;;;;;;4.97;4.77;;;28.70;46.00;;;;;;5027062;28;20447;-79
2022/07/12 10:03:34;;;;;;;4.43;4.23;;;29.60;47.50;;;;;;5039213;28;20438;-80
2022/07/12 10:06:02;;;;;;;4.23;4.13;;;31.30;45.90;;;;;;5029615;28;20496;-79
2022/07/12 10:08:29;;;;;;;5.03;4.37;;;32.70;43.60;;;;;;5030916;28;20488;-83
2022/07/12 10:10:55;;;;;;;4.60;4.40;;;33.20;42.20;;;;;;5041758;28;20435;-80
2022/07/12 10:13:21;;;;;;;4.67;4.47;;;31.70;43.40;;;;;;5036878;28;20490;-79
2022/07/12 10:15:49;;;;;;;4.70;4.50;;;31.10;43.50;;;;;;5040797;28;20437;-81
2022/07/12 10:18:16;;;;;;;4.90;4.70;;;31.30;44.60;;;;;;5033857;28;20464;-79
2022/07/12 10:20:43;;;;;;;5.80;5.50;;;32.60;43.20;;;;;;5032239;28;20431;-81
2022/07/12 10:23:34;;;;;;;6.07;5.87;;;33.40;42.50;;;;;;5033266;28;20440;-81
2022/07/12 10:26:01;;;;;;;6.20;5.80;;;34.10;40.90;;;;;;5031783;28;20772;-79
2022/07/12 10:28:56;;;;;;;6.67;6.37;;;34.10;41.00;;;;;;5027199;28;20485;-80
2022/07/12 10:31:24;;;;;;;6.20;5.80;;;34.00;40.50;;;;;;5026901;28;21440;-82
2022/07/12 10:34:09;;;;;;;5.60;5.30;;;34.20;40.90;;;;;;5037136;28;20443;-80
2022/07/12 10:36:56;;;;;;;5.83;5.53;;;33.60;41.80;;;;;;5029588;28;20479;-84
2022/07/12 10:39:23;;;;;;;5.10;4.90;;;33.50;41.60;;;;;;5021487;28;20465;-79
2022/07/12 10:42:05;;;;;;;5.17;4.97;;;32.30;42.70;;;;;;5028284;28;20522;-81
2022/07/12 10:44:38;;;;;;;4.13;3.93;;;30.80;44.20;;;;;;5032107;28;20433;-80
2022/07/12 10:47:06;;;;;;;3.50;3.00;;;29.60;45.40;;;;;;5034356;28;20481;-81
2022/07/12 10:49:33;;;;;;;2.77;2.50;;;28.80;48.70;;;;;;5024999;28;20713;-79
2022/07/12 10:52:11;;;;;;;1.80;1.70;;;27.80;48.90;;;;;;5030166;28;20441;-80
2022/07/12 10:55:08;;;;;;;2.00;1.90;;;27.00;52.20;;;;;;5028167;28;20799;-79
2022/07/12 10:57:50;;;;;;;1.43;1.33;;;26.80;51.80;;;;;;5025890;28;20464;-81
2022/07/12 11:00:16;;;;;;;1.70;1.60;;;26.90;54.20;;;;;;5028933;28;20438;-80
2022/07/12 11:02:43;;;;;;;1.70;1.60;;;26.90;52.90;;;;;;5032419;28;20442;-81
2022/07/12 11:05:09;;;;;;;1.57;1.47;;;27.00;53.00;;;;;;5029458;28;20567;-82
2022/07/12 11:07:35;;;;;;;2.00;1.80;;;26.50;53.90;;;;;;5029171;28;20454;-79
2022/07/12 11:10:00;;;;;;;1.70;1.57;;;26.30;55.20;;;;;;5020782;28;20246;-79
2022/07/12 11:12:30;;;;;;;2.07;1.50;;;26.30;54.00;;;;;;5030659;28;20449;-83
2022/07/12 11:14:59;;;;;;;1.60;1.50;;;26.30;54.80;;;;;;5029552;28;20187;-78
2022/07/12 11:17:31;;;;;;;1.63;1.53;;;26.10;57.90;;;;;;5026489;28;20464;-81
2022/07/12 11:20:09;;;;;;;1.30;1.20;;;26.10;58.50;;;;;;5027643;28;20452;-79
2022/07/12 11:22:36;;;;;;;1.87;1.60;;;26.10;58.10;;;;;;5022760;28;20441;-80
2022/07/12 11:25:03;;;;;;;2.20;1.10;;;25.90;58.20;;;;;;5026275;28;20447;-81
2022/07/12 11:27:29;;;;;;;1.37;1.27;;;26.10;57.90;;;;;;5023434;28;21020;-81
2022/07/12 11:29:59;;;;;;;1.40;1.30;;;26.30;57.20;;;;;;5028474;28;20455;-79
2022/07/12 11:32:37;;;;;;;1.10;1.10;;;26.30;56.10;;;;;;5026761;28;20198;-81
2022/07/12 11:35:04;;;;;;;2.90;1.17;;;26.40;56.80;;;;;;5028394;28;20989;-80
2022/07/12 11:37:30;;;;;;;1.60;1.50;;;26.50;54.60;;;;;;5030848;28;20836;-79
2022/07/12 11:39:56;;;;;;;4.40;1.50;;;26.50;55.70;;;;;;5023597;28;20634;-83
2022/07/12 11:42:21;;;;;;;2.30;1.43;;;26.60;55.90;;;;;;5035276;28;20446;-81
2022/07/12 11:44:51;;;;;;;1.83;1.67;;;26.80;57.60;;;;;;5039968;28;20254;-81
2022/07/12 11:47:19;;;;;;;2.30;1.30;;;26.80;56.00;;;;;;5026625;28;20353;-80
2022/07/12 11:49:47;;;;;;;1.50;1.40;;;26.90;56.30;;;;;;5028397;28;20886;-80
2022/07/12 11:52:17;;;;;;;1.60;1.50;;;27.10;56.00;;;;;;5023470;28;20452;-79
2022/07/12 11:54:47;;;;;;;1.50;1.33;;;27.20;55.60;;;;;;5033054;28;20448;-81
2022/07/12 11:57:14;;;;;;;1.63;1.53;;;26.90;55.20;;;;;;5041876;28;20516;-81
2022/07/12 11:59:41;;;;;;;1.30;1.30;;;26.80;55.20;;;;;;5032036;28;20488;-79
2022/07/12 12:02:09;;;;;;;1.63;1.53;;;26.70;57.20;;;;;;5039763;28;20529;-79
2022/07/12 12:04:44;;;;;;;2.50;1.47;;;26.50;55.90;;;;;;5034520;28;20454;-81
2022/07/12 12:07:09;;;;;;;1.60;1.50;;;26.50;58.20;;;;;;5034131;28;20450;-80
2022/07/12 12:10:10;;;;;;;1.47;1.37;;;26.60;57.70;;;;;;5034776;28;20445;-80
2022/07/12 12:12:35;;;;;;;1.70;1.60;;;26.60;56.90;;;;;;5040113;28;20202;-82
2022/07/12 12:15:04;;;;;;;1.70;1.60;;;26.40;58.10;;;;;;5034310;28;20441;-82
2022/07/12 12:17:29;;;;;;;3.43;1.30;;;26.70;57.00;;;;;;5033981;28;20221;-80
2022/07/12 12:19:55;;;;;;;5.70;1.60;;;27.00;55.70;;;;;;5035687;28;20470;-81
2022/07/12 12:22:34;;;;;;;1.30;1.20;;;27.10;56.30;;;;;;5033775;28;20214;-80
2022/07/12 12:25:00;;;;;;;1.40;1.30;;;27.40;56.40;;;;;;5034054;28;20179;-82
2022/07/12 12:27:26;;;;;;;5.93;1.63;;;27.60;54.60;;;;;;5032906;28;20504;-81
2022/07/12 12:29:52;;;;;;;1.63;1.53;;;27.50;54.00;;;;;;5038011;28;20439;-81
2022/07/12 12:32:17;;;;;;;1.33;1.27;;;27.20;54.20;;;;;;5033437;28;20474;-82
2022/07/12 12:35:09;;;;;;;1.27;1.17;;;27.00;56.10;;;;;;5036251;28;20185;-80
2022/07/12 12:37:35;;;;;;;1.83;1.43;;;27.10;54.70;;;;;;5030935;28;20268;-80
2022/07/12 12:40:02;;;;;;;1.27;1.20;;;27.20;54.10;;;;;;5034119;28;21374;-81
2022/07/12 12:42:28;;;;;;;1.40;1.30;;;27.20;53.60;;;;;;5036104;28;20180;-83
2022/07/12 12:44:53;;;;;;;2.07;1.40;;;27.10;54.00;;;;;;5035474;28;20528;-77
2022/07/12 12:47:31;;;;;;;1.77;1.63;;;27.10;54.80;;;;;;5032575;28;21168;-82
2022/07/12 12:49:57;;;;;;;1.77;1.60;;;27.20;54.80;;;;;;5034637;28;20241;-80
2022/07/12 12:52:24;;;;;;;2.13;1.30;;;27.50;54.40;;;;;;5031960;28;20442;-82
2022/07/12 12:54:50;;;;;;;1.37;1.27;;;27.50;54.60;;;;;;5031731;28;20462;-81